sensor_id;sensor_type;location;lat;lon;timestamp;pressure;altitude;pressure_sealevel;temperature;humidity
22572;BME280;11452;53.368;14.658;2023-04-21T00:01:48;101668.55;;;12.29;56.90
22572;BME280;11452;53.368;14.658;2023-04-21T00:06:54;101664.66;;;12.17;56.95
22572;BME280;11452;53.368;14.658;2023-04-21T00:12:00;101653.97;;;12.07;57.19
22572;BME280;11452;53.368;14.658;2023-04-21T00:17:05;101655.76;;;11.98;57.27
22572;BME280;11452;53.368;14.658;2023-04-21T00:22:11;101652.26;;;11.87;57.47
22572;BME280;11452;53.368;14.658;2023-04-21T00:27:18;101653.07;;;11.79;57.68
22572;BME280;11452;53.368;14.658;2023-04-21T00:32:23;101645.67;;;11.74;57.80
22572;BME280;11452;53.368;14.658;2023-04-21T00:37:29;101653.62;;;11.67;58.03
22572;BME280;11452;53.368;14.658;2023-04-21T00:42:35;101649.27;;;11.64;58.29
22572;BME280;11452;53.368;14.658;2023-04-21T00:47:41;101651.14;;;11.62;58.39
22572;BME280;11452;53.368;14.658;2023-04-21T00:52:47;101651.88;;;11.56;58.47
22572;BME280;11452;53.368;14.658;2023-04-21T00:57:54;101651.48;;;11.55;58.52
22572;BME280;11452;53.368;14.658;2023-04-21T01:03:02;101649.97;;;11.49;58.62
22572;BME280;11452;53.368;14.658;2023-04-21T01:08:09;101645.29;;;11.44;58.69
22572;BME280;11452;53.368;14.658;2023-04-21T01:13:18;101648.16;;;11.39;58.81
22572;BME280;11452;53.368;14.658;2023-04-21T01:18:22;101656.92;;;11.33;58.91
22572;BME280;11452;53.368;14.658;2023-04-21T01:23:28;101650.19;;;11.24;59.11
22572;BME280;11452;53.368;14.658;2023-04-21T01:28:34;101652.80;;;11.16;59.19
22572;BME280;11452;53.368;14.658;2023-04-21T01:33:40;101652.15;;;11.10;59.47
22572;BME280;11452;53.368;14.658;2023-04-21T01:38:47;101652.81;;;11.05;59.56
22572;BME280;11452;53.368;14.658;2023-04-21T01:43:52;101648.65;;;10.98;59.70
22572;BME280;11452;53.368;14.658;2023-04-21T01:48:59;101643.36;;;10.97;59.76
22572;BME280;11452;53.368;14.658;2023-04-21T01:54:05;101637.36;;;10.92;59.97
22572;BME280;11452;53.368;14.658;2023-04-21T01:59:11;101649.93;;;10.90;60.08
22572;BME280;11452;53.368;14.658;2023-04-21T02:04:16;101643.24;;;10.90;60.14
22572;BME280;11452;53.368;14.658;2023-04-21T02:09:22;101644.77;;;10.85;60.26
22572;BME280;11452;53.368;14.658;2023-04-21T02:14:29;101642.63;;;10.83;60.23
22572;BME280;11452;53.368;14.658;2023-04-21T02:19:34;101643.34;;;10.76;60.43
22572;BME280;11452;53.368;14.658;2023-04-21T02:24:41;101642.34;;;10.69;60.40
22572;BME280;11452;53.368;14.658;2023-04-21T02:29:47;101642.88;;;10.67;60.74
22572;BME280;11452;53.368;14.658;2023-04-21T02:34:53;101641.88;;;10.69;60.76
22572;BME280;11452;53.368;14.658;2023-04-21T02:40:01;101633.98;;;10.66;60.76
22572;BME280;11452;53.368;14.658;2023-04-21T02:45:08;101636.84;;;10.62;60.83
22572;BME280;11452;53.368;14.658;2023-04-21T02:50:14;101639.98;;;10.61;60.88
22572;BME280;11452;53.368;14.658;2023-04-21T02:55:21;101635.38;;;10.55;60.90
22572;BME280;11452;53.368;14.658;2023-04-21T03:00:26;101639.17;;;10.49;60.93
22572;BME280;11452;53.368;14.658;2023-04-21T03:05:33;101638.02;;;10.45;61.05
22572;BME280;11452;53.368;14.658;2023-04-21T03:10:38;101639.00;;;10.42;61.10
22572;BME280;11452;53.368;14.658;2023-04-21T03:15:44;101636.66;;;10.34;61.15
22572;BME280;11452;53.368;14.658;2023-04-21T03:20:51;101632.66;;;10.34;61.31
22572;BME280;11452;53.368;14.658;2023-04-21T03:25:59;101628.25;;;10.33;61.37
22572;BME280;11452;53.368;14.658;2023-04-21T03:31:04;101622.50;;;10.32;61.41
22572;BME280;11452;53.368;14.658;2023-04-21T03:36:10;101616.75;;;10.31;61.45
22572;BME280;11452;53.368;14.658;2023-04-21T03:41:15;101615.81;;;10.32;61.45
22572;BME280;11452;53.368;14.658;2023-04-21T03:46:21;101613.84;;;10.26;61.32
22572;BME280;11452;53.368;14.658;2023-04-21T03:51:27;101615.36;;;10.21;61.41
22572;BME280;11452;53.368;14.658;2023-04-21T03:56:32;101618.21;;;10.17;61.40
22572;BME280;11452;53.368;14.658;2023-04-21T04:01:38;101618.33;;;10.14;61.54
22572;BME280;11452;53.368;14.658;2023-04-21T04:06:45;101609.91;;;10.13;61.70
22572;BME280;11452;53.368;14.658;2023-04-21T04:11:51;101608.05;;;10.15;61.75
22572;BME280;11452;53.368;14.658;2023-04-21T04:16:58;101615.31;;;10.11;61.74
22572;BME280;11452;53.368;14.658;2023-04-21T04:22:03;101623.61;;;10.15;62.02
22572;BME280;11452;53.368;14.658;2023-04-21T04:27:09;101626.81;;;10.13;61.74
22572;BME280;11452;53.368;14.658;2023-04-21T04:32:17;101632.97;;;10.15;62.02
22572;BME280;11452;53.368;14.658;2023-04-21T04:37:22;101626.74;;;10.26;62.14
22572;BME280;11452;53.368;14.658;2023-04-21T04:42:28;101619.58;;;10.38;62.37
22572;BME280;11452;53.368;14.658;2023-04-21T04:47:35;101627.02;;;10.52;62.25
22572;BME280;11452;53.368;14.658;2023-04-21T04:52:40;101627.02;;;10.62;62.15
22572;BME280;11452;53.368;14.658;2023-04-21T04:57:47;101626.65;;;10.71;62.01
22572;BME280;11452;53.368;14.658;2023-04-21T05:02:53;101631.31;;;10.76;61.79
22572;BME280;11452;53.368;14.658;2023-04-21T05:08:00;101629.94;;;10.88;61.85
22572;BME280;11452;53.368;14.658;2023-04-21T05:13:05;101620.43;;;11.01;61.82
22572;BME280;11452;53.368;14.658;2023-04-21T05:18:11;101628.17;;;11.18;61.58
22572;BME280;11452;53.368;14.658;2023-04-21T05:23:16;101621.36;;;11.31;61.21
22572;BME280;11452;53.368;14.658;2023-04-21T05:28:22;101624.74;;;11.44;61.20
22572;BME280;11452;53.368;14.658;2023-04-21T05:33:27;101632.47;;;11.61;60.98
22572;BME280;11452;53.368;14.658;2023-04-21T05:38:35;101628.27;;;11.74;60.58
22572;BME280;11452;53.368;14.658;2023-04-21T05:43:41;101617.58;;;11.84;60.31
22572;BME280;11452;53.368;14.658;2023-04-21T05:48:47;101627.08;;;12.00;59.85
22572;BME280;11452;53.368;14.658;2023-04-21T05:53:52;101623.33;;;12.12;59.74
22572;BME280;11452;53.368;14.658;2023-04-21T05:58:58;101619.21;;;12.33;59.52
22572;BME280;11452;53.368;14.658;2023-04-21T06:04:03;101613.58;;;12.56;59.34
22572;BME280;11452;53.368;14.658;2023-04-21T06:09:10;101619.02;;;12.72;58.70
22572;BME280;11452;53.368;14.658;2023-04-21T06:14:17;101622.20;;;12.80;58.08
22572;BME280;11452;53.368;14.658;2023-04-21T06:19:23;101632.12;;;12.87;57.62
22572;BME280;11452;53.368;14.658;2023-04-21T06:24:31;101638.50;;;13.01;56.90
22572;BME280;11452;53.368;14.658;2023-04-21T06:29:36;101620.06;;;13.94;54.04
22572;BME280;11452;53.368;14.658;2023-04-21T06:34:42;101612.50;;;13.45;55.66
22572;BME280;11452;53.368;14.658;2023-04-21T06:39:48;101620.80;;;13.49;55.27
22572;BME280;11452;53.368;14.658;2023-04-21T06:44:54;101612.37;;;13.64;55.55
22572;BME280;11452;53.368;14.658;2023-04-21T06:50:14;101617.81;;;13.71;55.13
22572;BME280;11452;53.368;14.658;2023-04-21T06:55:19;101611.33;;;13.91;55.06
22572;BME280;11452;53.368;14.658;2023-04-21T07:00:25;101612.59;;;14.31;55.51
22572;BME280;11452;53.368;14.658;2023-04-21T07:05:31;101610.77;;;14.70;55.21
22572;BME280;11452;53.368;14.658;2023-04-21T07:10:38;101600.36;;;14.94;55.07
22572;BME280;11452;53.368;14.658;2023-04-21T07:15:43;101599.05;;;15.22;54.25
22572;BME280;11452;53.368;14.658;2023-04-21T07:20:52;101601.73;;;15.22;53.75
22572;BME280;11452;53.368;14.658;2023-04-21T07:25:58;101603.88;;;15.45;53.65
22572;BME280;11452;53.368;14.658;2023-04-21T07:31:04;101602.36;;;15.63;53.10
22572;BME280;11452;53.368;14.658;2023-04-21T07:36:10;101599.45;;;15.87;53.00
22572;BME280;11452;53.368;14.658;2023-04-21T07:41:15;101600.19;;;16.10;52.62
22572;BME280;11452;53.368;14.658;2023-04-21T07:46:21;101602.93;;;16.23;51.86
22572;BME280;11452;53.368;14.658;2023-04-21T07:51:28;101597.27;;;16.40;52.06
22572;BME280;11452;53.368;14.658;2023-04-21T07:56:35;101594.20;;;16.59;51.44
22572;BME280;11452;53.368;14.658;2023-04-21T08:01:41;101593.16;;;16.81;51.20
22572;BME280;11452;53.368;14.658;2023-04-21T08:06:46;101594.77;;;17.04;50.66
22572;BME280;11452;53.368;14.658;2023-04-21T08:11:52;101581.53;;;17.19;49.81
22572;BME280;11452;53.368;14.658;2023-04-21T08:16:59;101577.53;;;17.37;49.55
22572;BME280;11452;53.368;14.658;2023-04-21T08:22:05;101567.98;;;17.70;49.22
22572;BME280;11452;53.368;14.658;2023-04-21T08:27:10;101563.07;;;17.87;48.12
22572;BME280;11452;53.368;14.658;2023-04-21T08:32:16;101564.38;;;18.00;47.72
22572;BME280;11452;53.368;14.658;2023-04-21T08:37:23;101559.16;;;18.10;47.10
22572;BME280;11452;53.368;14.658;2023-04-21T08:42:29;101566.38;;;18.27;46.63
22572;BME280;11452;53.368;14.658;2023-04-21T08:47:39;101553.98;;;18.30;45.76
22572;BME280;11452;53.368;14.658;2023-04-21T08:52:45;101559.80;;;18.43;45.31
22572;BME280;11452;53.368;14.658;2023-04-21T08:57:50;101553.16;;;18.65;45.31
22572;BME280;11452;53.368;14.658;2023-04-21T09:02:58;101547.30;;;18.82;44.19
22572;BME280;11452;53.368;14.658;2023-04-21T09:08:13;101548.80;;;18.97;44.02
22572;BME280;11452;53.368;14.658;2023-04-21T09:13:30;101547.34;;;19.05;43.24
22572;BME280;11452;53.368;14.658;2023-04-21T09:18:36;101550.05;;;19.05;42.62
22572;BME280;11452;53.368;14.658;2023-04-21T09:23:46;101547.87;;;19.26;41.73
22572;BME280;11452;53.368;14.658;2023-04-21T09:28:52;101546.13;;;19.31;41.25
22572;BME280;11452;53.368;14.658;2023-04-21T09:33:59;101541.09;;;19.43;41.14
22572;BME280;11452;53.368;14.658;2023-04-21T09:39:05;101548.24;;;19.44;40.58
22572;BME280;11452;53.368;14.658;2023-04-21T09:44:13;101540.62;;;19.60;39.82
22572;BME280;11452;53.368;14.658;2023-04-21T09:49:22;101532.08;;;19.70;39.73
22572;BME280;11452;53.368;14.658;2023-04-21T09:54:33;101532.70;;;19.80;39.20
22572;BME280;11452;53.368;14.658;2023-04-21T09:59:44;101528.75;;;19.84;38.63
22572;BME280;11452;53.368;14.658;2023-04-21T10:04:50;101524.16;;;19.90;38.38
22572;BME280;11452;53.368;14.658;2023-04-21T10:09:58;101515.40;;;19.86;37.72
22572;BME280;11452;53.368;14.658;2023-04-21T10:15:05;101519.83;;;19.93;37.96
22572;BME280;11452;53.368;14.658;2023-04-21T10:20:14;101517.94;;;20.04;37.48
22572;BME280;11452;53.368;14.658;2023-04-21T10:25:20;101501.03;;;20.06;36.96
22572;BME280;11452;53.368;14.658;2023-04-21T10:30:25;101512.75;;;20.07;36.76
22572;BME280;11452;53.368;14.658;2023-04-21T10:36:00;101499.35;;;20.26;36.57
22572;BME280;11452;53.368;14.658;2023-04-21T10:41:27;101485.77;;;20.37;36.53
22572;BME280;11452;53.368;14.658;2023-04-21T10:46:38;101488.67;;;20.46;35.85
22572;BME280;11452;53.368;14.658;2023-04-21T10:57:10;101476.02;;;20.29;35.02
22572;BME280;11452;53.368;14.658;2023-04-21T11:02:17;101470.33;;;20.32;34.78
22572;BME280;11452;53.368;14.658;2023-04-21T11:07:24;101466.14;;;20.39;34.50
22572;BME280;11452;53.368;14.658;2023-04-21T11:12:36;101457.29;;;20.53;34.25
22572;BME280;11452;53.368;14.658;2023-04-21T11:17:44;101458.20;;;20.42;33.70
22572;BME280;11452;53.368;14.658;2023-04-21T11:22:52;101445.73;;;20.60;33.73
22572;BME280;11452;53.368;14.658;2023-04-21T11:27:59;101439.98;;;20.74;33.40
22572;BME280;11452;53.368;14.658;2023-04-21T11:33:04;101430.14;;;20.68;32.46
22572;BME280;11452;53.368;14.658;2023-04-21T11:38:10;101421.16;;;20.62;32.05
22572;BME280;11452;53.368;14.658;2023-04-21T11:43:17;101415.46;;;20.80;32.10
22572;BME280;11452;53.368;14.658;2023-04-21T11:48:28;101419.76;;;20.98;31.94
22572;BME280;11452;53.368;14.658;2023-04-21T11:53:33;101412.75;;;21.11;31.73
22572;BME280;11452;53.368;14.658;2023-04-21T11:58:38;101405.30;;;20.97;30.72
22572;BME280;11452;53.368;14.658;2023-04-21T12:03:53;101400.53;;;20.95;30.77
22572;BME280;11452;53.368;14.658;2023-04-21T12:09:07;101394.39;;;21.03;30.42
22572;BME280;11452;53.368;14.658;2023-04-21T12:14:15;101386.77;;;20.97;29.84
22572;BME280;11452;53.368;14.658;2023-04-21T12:19:34;101380.66;;;21.04;29.79
22572;BME280;11452;53.368;14.658;2023-04-21T12:24:31;101379.71;;;21.15;29.57
22572;BME280;11452;53.368;14.658;2023-04-21T12:29:39;101376.04;;;21.11;29.06
22572;BME280;11452;53.368;14.658;2023-04-21T12:34:47;101376.48;;;21.31;29.11
22572;BME280;11452;53.368;14.658;2023-04-21T12:39:52;101369.23;;;21.35;29.08
22572;BME280;11452;53.368;14.658;2023-04-21T12:44:58;101368.91;;;21.44;29.09
22572;BME280;11452;53.368;14.658;2023-04-21T12:50:06;101357.91;;;21.65;28.95
22572;BME280;11452;53.368;14.658;2023-04-21T12:55:11;101346.30;;;21.82;28.94
22572;BME280;11452;53.368;14.658;2023-04-21T13:00:17;101336.69;;;21.97;28.78
22572;BME280;11452;53.368;14.658;2023-04-21T13:05:23;101325.96;;;21.86;28.78
22572;BME280;11452;53.368;14.658;2023-04-21T13:10:28;101327.30;;;21.96;28.20
22572;BME280;11452;53.368;14.658;2023-04-21T13:15:35;101330.31;;;22.12;28.78
22572;BME280;11452;53.368;14.658;2023-04-21T13:20:41;101333.10;;;22.16;28.48
22572;BME280;11452;53.368;14.658;2023-04-21T13:25:46;101319.23;;;22.46;28.79
22572;BME280;11452;53.368;14.658;2023-04-21T13:31:14;101306.45;;;22.80;28.70
22572;BME280;11452;53.368;14.658;2023-04-21T13:36:22;101306.30;;;22.95;28.78
22572;BME280;11452;53.368;14.658;2023-04-21T13:41:28;101299.22;;;22.89;28.40
22572;BME280;11452;53.368;14.658;2023-04-21T13:46:33;101303.78;;;22.74;27.73
22572;BME280;11452;53.368;14.658;2023-04-21T13:51:39;101291.55;;;22.88;28.23
22572;BME280;11452;53.368;14.658;2023-04-21T13:56:45;101280.58;;;22.84;27.81
22572;BME280;11452;53.368;14.658;2023-04-21T14:01:54;101274.63;;;22.85;27.69
22572;BME280;11452;53.368;14.658;2023-04-21T14:07:02;101263.92;;;22.87;27.62
22572;BME280;11452;53.368;14.658;2023-04-21T14:12:08;101261.02;;;23.02;27.77
22572;BME280;11452;53.368;14.658;2023-04-21T14:17:14;101256.40;;;22.99;27.50
22572;BME280;11452;53.368;14.658;2023-04-21T14:22:20;101261.50;;;22.98;27.32
22572;BME280;11452;53.368;14.658;2023-04-21T14:27:25;101245.11;;;23.11;27.35
22572;BME280;11452;53.368;14.658;2023-04-21T14:32:31;101243.14;;;23.22;27.16
22572;BME280;11452;53.368;14.658;2023-04-21T14:37:48;101242.48;;;23.24;27.21
22572;BME280;11452;53.368;14.658;2023-04-21T14:43:04;101234.19;;;23.29;26.91
22572;BME280;11452;53.368;14.658;2023-04-21T14:48:09;101229.34;;;23.23;27.01
22572;BME280;11452;53.368;14.658;2023-04-21T14:53:21;101211.31;;;23.26;26.80
22572;BME280;11452;53.368;14.658;2023-04-21T14:58:30;101206.80;;;23.39;26.61
22572;BME280;11452;53.368;14.658;2023-04-21T15:03:36;101207.15;;;23.36;26.42
22572;BME280;11452;53.368;14.658;2023-04-21T15:08:42;101196.97;;;23.24;26.16
22572;BME280;11452;53.368;14.658;2023-04-21T15:13:47;101197.41;;;23.33;26.28
22572;BME280;11452;53.368;14.658;2023-04-21T15:18:53;101191.14;;;23.41;26.41
22572;BME280;11452;53.368;14.658;2023-04-21T15:23:59;101186.64;;;23.32;25.95
22572;BME280;11452;53.368;14.658;2023-04-21T15:29:05;101186.53;;;23.41;26.28
22572;BME280;11452;53.368;14.658;2023-04-21T15:34:10;101177.69;;;23.43;26.19
22572;BME280;11452;53.368;14.658;2023-04-21T15:39:16;101174.59;;;23.56;26.03
22572;BME280;11452;53.368;14.658;2023-04-21T15:44:21;101170.86;;;23.61;26.14
22572;BME280;11452;53.368;14.658;2023-04-21T15:49:27;101165.84;;;23.78;26.35
22572;BME280;11452;53.368;14.658;2023-04-21T15:54:34;101157.88;;;23.85;25.84
22572;BME280;11452;53.368;14.658;2023-04-21T15:59:40;101152.97;;;23.97;25.84
22572;BME280;11452;53.368;14.658;2023-04-21T16:04:46;101148.45;;;24.09;25.97
22572;BME280;11452;53.368;14.658;2023-04-21T16:09:52;101150.66;;;24.52;26.57
22572;BME280;11452;53.368;14.658;2023-04-21T16:14:57;101140.34;;;25.25;27.06
22572;BME280;11452;53.368;14.658;2023-04-21T16:20:07;101134.66;;;26.88;25.61
22572;BME280;11452;53.368;14.658;2023-04-21T16:25:15;101135.97;;;27.75;25.32
22572;BME280;11452;53.368;14.658;2023-04-21T16:36:39;101124.87;;;29.94;23.10
22572;BME280;11452;53.368;14.658;2023-04-21T16:41:45;101123.35;;;30.19;22.28
22572;BME280;11452;53.368;14.658;2023-04-21T16:46:51;101123.31;;;29.50;20.53
22572;BME280;11452;53.368;14.658;2023-04-21T16:51:57;101121.01;;;27.63;19.95
22572;BME280;11452;53.368;14.658;2023-04-21T16:57:02;101118.55;;;26.62;20.10
22572;BME280;11452;53.368;14.658;2023-04-21T17:02:08;101116.72;;;25.56;20.15
22572;BME280;11452;53.368;14.658;2023-04-21T17:07:13;101109.52;;;24.62;20.48
22572;BME280;11452;53.368;14.658;2023-04-21T17:12:19;101109.69;;;24.10;20.83
22572;BME280;11452;53.368;14.658;2023-04-21T17:17:25;101106.33;;;23.52;21.03
22572;BME280;11452;53.368;14.658;2023-04-21T17:22:31;101105.88;;;23.17;21.29
22572;BME280;11452;53.368;14.658;2023-04-21T17:27:38;101106.23;;;23.44;21.14
22572;BME280;11452;53.368;14.658;2023-04-21T17:32:44;101109.13;;;22.63;21.69
22572;BME280;11452;53.368;14.658;2023-04-21T17:37:50;101109.67;;;22.35;22.07
22572;BME280;11452;53.368;14.658;2023-04-21T17:42:55;101109.23;;;22.13;22.19
22572;BME280;11452;53.368;14.658;2023-04-21T17:48:01;101111.27;;;21.87;22.37
22572;BME280;11452;53.368;14.658;2023-04-21T17:53:07;101116.20;;;21.51;22.66
22572;BME280;11452;53.368;14.658;2023-04-21T17:58:12;101112.53;;;21.32;23.00
22572;BME280;11452;53.368;14.658;2023-04-21T18:03:18;101115.17;;;20.99;23.68
22572;BME280;11452;53.368;14.658;2023-04-21T18:08:24;101118.69;;;20.67;24.33
22572;BME280;11452;53.368;14.658;2023-04-21T18:13:30;101119.22;;;20.42;24.95
22572;BME280;11452;53.368;14.658;2023-04-21T18:18:36;101124.15;;;20.17;25.66
22572;BME280;11452;53.368;14.658;2023-04-21T18:23:42;101133.09;;;19.98;26.00
22572;BME280;11452;53.368;14.658;2023-04-21T18:28:48;101133.25;;;19.66;26.54
22572;BME280;11452;53.368;14.658;2023-04-21T18:33:54;101140.51;;;19.45;27.04
22572;BME280;11452;53.368;14.658;2023-04-21T18:39:00;101140.75;;;19.27;27.39
22572;BME280;11452;53.368;14.658;2023-04-21T18:44:05;101143.08;;;19.05;27.74
22572;BME280;11452;53.368;14.658;2023-04-21T18:49:11;101145.88;;;18.83;28.07
22572;BME280;11452;53.368;14.658;2023-04-21T19:00:11;101147.70;;;18.39;28.86
22572;BME280;11452;53.368;14.658;2023-04-21T19:11:04;101146.67;;;17.97;29.76
22572;BME280;11452;53.368;14.658;2023-04-21T19:22:09;101147.59;;;17.51;30.77
22572;BME280;11452;53.368;14.658;2023-04-21T19:33:01;101143.23;;;17.21;31.65
22572;BME280;11452;53.368;14.658;2023-04-21T19:43:49;101141.52;;;16.85;32.54
22572;BME280;11452;53.368;14.658;2023-04-21T19:48:55;101133.20;;;16.64;33.11
22572;BME280;11452;53.368;14.658;2023-04-21T19:54:00;101131.25;;;16.48;33.60
22572;BME280;11452;53.368;14.658;2023-04-21T19:59:07;101129.55;;;16.34;34.25
22572;BME280;11452;53.368;14.658;2023-04-21T20:04:13;101132.04;;;16.19;34.67
22572;BME280;11452;53.368;14.658;2023-04-21T20:09:20;101129.23;;;16.02;35.15
22572;BME280;11452;53.368;14.658;2023-04-21T20:14:25;101131.20;;;15.87;35.38
22572;BME280;11452;53.368;14.658;2023-04-21T20:19:31;101131.77;;;15.67;35.99
22572;BME280;11452;53.368;14.658;2023-04-21T20:24:39;101122.54;;;15.51;36.40
22572;BME280;11452;53.368;14.658;2023-04-21T20:29:47;101125.00;;;15.42;36.83
22572;BME280;11452;53.368;14.658;2023-04-21T20:34:53;101128.08;;;15.30;37.16
22572;BME280;11452;53.368;14.658;2023-04-21T20:39:59;101121.45;;;15.16;37.64
22572;BME280;11452;53.368;14.658;2023-04-21T20:45:10;101122.34;;;15.09;38.14
22572;BME280;11452;53.368;14.658;2023-04-21T20:50:16;101128.38;;;15.00;38.41
22572;BME280;11452;53.368;14.658;2023-04-21T20:55:22;101133.80;;;14.93;38.58
22572;BME280;11452;53.368;14.658;2023-04-21T21:00:27;101133.56;;;14.83;39.01
22572;BME280;11452;53.368;14.658;2023-04-21T21:05:36;101131.96;;;14.74;39.34
22572;BME280;11452;53.368;14.658;2023-04-21T21:10:41;101129.25;;;14.61;39.55
22572;BME280;11452;53.368;14.658;2023-04-21T21:15:47;101133.20;;;14.48;39.92
22572;BME280;11452;53.368;14.658;2023-04-21T21:20:52;101129.38;;;14.38;40.23
22572;BME280;11452;53.368;14.658;2023-04-21T21:25:58;101127.51;;;14.26;40.68
22572;BME280;11452;53.368;14.658;2023-04-21T21:31:05;101130.40;;;14.16;41.04
22572;BME280;11452;53.368;14.658;2023-04-21T21:36:10;101128.03;;;14.04;41.37
22572;BME280;11452;53.368;14.658;2023-04-21T21:41:16;101132.64;;;13.95;41.83
22572;BME280;11452;53.368;14.658;2023-04-21T21:46:23;101123.91;;;13.92;42.23
22572;BME280;11452;53.368;14.658;2023-04-21T21:51:28;101124.52;;;13.90;42.43
22572;BME280;11452;53.368;14.658;2023-04-21T21:56:34;101130.08;;;13.86;42.54
22572;BME280;11452;53.368;14.658;2023-04-21T22:01:40;101131.98;;;13.77;42.78
22572;BME280;11452;53.368;14.658;2023-04-21T22:06:46;101122.80;;;13.67;43.14
22572;BME280;11452;53.368;14.658;2023-04-21T22:11:53;101122.97;;;13.57;43.43
22572;BME280;11452;53.368;14.658;2023-04-21T22:17:00;101118.87;;;13.51;43.87
22572;BME280;11452;53.368;14.658;2023-04-21T22:22:06;101121.83;;;13.47;44.18
22572;BME280;11452;53.368;14.658;2023-04-21T22:27:12;101119.99;;;13.40;44.49
22572;BME280;11452;53.368;14.658;2023-04-21T22:32:17;101125.47;;;13.32;44.70
22572;BME280;11452;53.368;14.658;2023-04-21T22:37:23;101130.25;;;13.27;45.04
22572;BME280;11452;53.368;14.658;2023-04-21T22:42:29;101132.26;;;13.16;45.35
22572;BME280;11452;53.368;14.658;2023-04-21T22:47:35;101141.98;;;13.10;45.58
22572;BME280;11452;53.368;14.658;2023-04-21T22:52:40;101142.91;;;12.95;45.83
22572;BME280;11452;53.368;14.658;2023-04-21T22:57:46;101131.87;;;12.92;46.29
22572;BME280;11452;53.368;14.658;2023-04-21T23:02:53;101144.90;;;12.91;46.56
22572;BME280;11452;53.368;14.658;2023-04-21T23:07:59;101143.47;;;12.93;46.76
22572;BME280;11452;53.368;14.658;2023-04-21T23:13:04;101140.40;;;12.92;46.85
22572;BME280;11452;53.368;14.658;2023-04-21T23:18:10;101142.69;;;12.91;46.83
22572;BME280;11452;53.368;14.658;2023-04-21T23:23:15;101149.40;;;12.91;46.96
22572;BME280;11452;53.368;14.658;2023-04-21T23:28:21;101146.23;;;12.91;47.05
22572;BME280;11452;53.368;14.658;2023-04-21T23:33:27;101142.69;;;12.91;46.99
22572;BME280;11452;53.368;14.658;2023-04-21T23:38:33;101139.83;;;12.94;47.13
22572;BME280;11452;53.368;14.658;2023-04-21T23:43:39;101145.77;;;12.92;47.03
22572;BME280;11452;53.368;14.658;2023-04-21T23:48:45;101140.40;;;12.92;47.06
22572;BME280;11452;53.368;14.658;2023-04-21T23:53:50;101150.36;;;12.90;47.18
22572;BME280;11452;53.368;14.658;2023-04-21T23:58:56;101146.54;;;12.94;47.23
